Terminal Aerodrome Forecast
Issued by NWS Cleveland, OH

Home | Current Version | Previous Version | Text Only | Print | Product List | Glossary Off
Versions: 1 2 3 4 5 6 7 8 9 10 11 12 13 14 15 16 17 18 19 20 21 22 23 24

000
FTUS41 KCLE 300959 AAA
TAFYNG
TAF AMD
KYNG 300959Z 3010/0106 VRB04KT 6SM BR OVC004
     FM301200 09005KT P6SM OVC009
     FM301400 09005KT P6SM BKN020
     FM301600 09006KT P6SM SCT020 BKN150
     FM302300 09006KT 6SM -RA BR OVC035
     FM010400 12010KT 3SM -RA BR OVC009=

USA.gov is the U.S. government's official web portal to all federal, state and local government web resources and services.